Time;durP1;ratioP1;P1;durP2;ratioP2;P2;SDS_P1;SDS_P2;PMS_P1;PMS_P2;Temp;Humidity;BMP_temperature;BMP_pressure;BME280_temperature;BME280_humidity;BME280_pressure;Samples;Min_cycle;Max_cycle;Signal;HPM_P1;HPM_P2
2024/01/14 00:00:17;;;;;;;66.70;22.80;;;-2.50;84.00;;;;;;5012100;28;20208;-71
2024/01/14 00:02:42;;;;;;;67.70;23.50;;;-2.40;84.10;;;;;;5013952;28;20177;-70
2024/01/14 00:05:09;;;;;;;66.73;21.60;;;-2.40;83.80;;;;;;5012164;28;20461;-69
2024/01/14 00:07:36;;;;;;;59.95;21.05;;;-2.40;83.70;;;;;;5013383;28;20189;-69
2024/01/14 00:10:03;;;;;;;64.50;22.33;;;-2.50;83.70;;;;;;5000036;28;20224;-71
2024/01/14 00:12:29;;;;;;;61.38;21.17;;;-2.40;83.80;;;;;;5015443;28;20209;-71
2024/01/14 00:14:54;;;;;;;63.27;20.97;;;-2.30;83.80;;;;;;5011755;28;20356;-71
2024/01/14 00:17:21;;;;;;;64.53;21.10;;;-2.30;83.70;;;;;;5017674;28;20686;-72
2024/01/14 00:19:47;;;;;;;70.47;22.10;;;-2.30;83.60;;;;;;5006251;28;20648;-70
2024/01/14 00:22:13;;;;;;;69.00;22.42;;;-2.30;83.40;;;;;;5011846;28;20196;-70
2024/01/14 00:24:38;;;;;;;57.77;20.67;;;-2.40;83.10;;;;;;5009551;28;20210;-70
2024/01/14 00:27:04;;;;;;;64.87;21.40;;;-2.30;83.60;;;;;;5015551;28;20740;-69
2024/01/14 00:29:29;;;;;;;58.20;21.47;;;-2.30;83.60;;;;;;5002258;28;20194;-72
2024/01/14 00:31:56;;;;;;;60.00;22.93;;;-2.20;83.60;;;;;;5002572;28;20249;-71
2024/01/14 00:34:22;;;;;;;66.75;20.58;;;-2.20;83.60;;;;;;5007903;28;20186;-72
2024/01/14 00:36:47;;;;;;;51.57;21.40;;;-2.10;83.60;;;;;;5008330;28;20336;-70
2024/01/14 00:39:13;;;;;;;63.10;22.23;;;-2.00;83.30;;;;;;5005749;28;20582;-69
2024/01/14 00:41:38;;;;;;;63.07;22.40;;;-2.20;82.80;;;;;;5002339;28;20243;-68
2024/01/14 00:44:04;;;;;;;66.03;20.20;;;-2.20;82.80;;;;;;5007886;28;20190;-70
2024/01/14 00:46:31;;;;;;;70.10;21.90;;;-2.10;83.00;;;;;;5017650;28;20687;-71
2024/01/14 00:48:57;;;;;;;58.83;21.67;;;-2.00;82.80;;;;;;5005841;28;20194;-70
2024/01/14 00:51:23;;;;;;;55.90;20.08;;;-2.10;82.70;;;;;;5006494;28;20224;-71
2024/01/14 00:53:49;;;;;;;58.60;21.88;;;-2.00;82.70;;;;;;5009939;28;20197;-71
2024/01/14 00:56:15;;;;;;;73.00;21.47;;;-2.00;82.70;;;;;;5009648;28;20185;-71
2024/01/14 00:58:40;;;;;;;64.27;22.07;;;-1.90;82.80;;;;;;5025048;28;20212;-71
2024/01/14 01:01:06;;;;;;;57.83;20.47;;;-1.80;82.40;;;;;;5011183;28;20213;-72
2024/01/14 01:03:31;;;;;;;61.27;20.43;;;-1.80;82.20;;;;;;5014535;28;20671;-72
2024/01/14 01:05:57;;;;;;;53.97;20.03;;;-1.80;82.20;;;;;;5014070;28;20220;-70
2024/01/14 01:08:23;;;;;;;65.10;21.83;;;-1.70;82.10;;;;;;5013241;28;20194;-71
2024/01/14 01:10:49;;;;;;;56.20;19.80;;;-1.70;81.90;;;;;;5009476;28;20212;-70
2024/01/14 01:13:15;;;;;;;59.80;20.37;;;-1.60;81.80;;;;;;5016313;28;20200;-71
2024/01/14 01:15:40;;;;;;;51.85;19.05;;;-1.60;81.80;;;;;;5015591;28;20462;-72
2024/01/14 01:18:06;;;;;;;55.77;20.40;;;-1.60;81.40;;;;;;5008193;28;20264;-71
2024/01/14 01:20:32;;;;;;;62.30;20.27;;;-1.60;81.20;;;;;;5008590;28;20205;-71
2024/01/14 01:22:58;;;;;;;67.40;20.83;;;-1.60;81.10;;;;;;5008765;28;20193;-71
2024/01/14 01:25:23;;;;;;;56.57;20.33;;;-1.60;81.10;;;;;;5014115;28;20256;-71
2024/01/14 01:27:49;;;;;;;65.00;20.77;;;-1.50;81.10;;;;;;5006021;28;20179;-71
2024/01/14 01:30:14;;;;;;;62.40;23.47;;;-1.50;80.90;;;;;;5008945;28;20645;-70
2024/01/14 01:32:40;;;;;;;63.03;22.40;;;-1.50;80.90;;;;;;5006534;28;20194;-72
2024/01/14 01:35:06;;;;;;;59.63;21.40;;;-1.50;80.80;;;;;;5018915;28;20691;-71
2024/01/14 01:37:31;;;;;;;61.07;22.27;;;-1.50;80.80;;;;;;5011120;28;20197;-70
2024/01/14 01:39:57;;;;;;;60.47;21.67;;;-1.50;80.50;;;;;;5010142;28;20464;-71
2024/01/14 01:42:22;;;;;;;51.30;20.93;;;-1.40;80.50;;;;;;5008333;28;20186;-71
2024/01/14 01:44:48;;;;;;;61.30;21.77;;;-1.40;80.20;;;;;;5010168;28;20221;-70
2024/01/14 01:47:16;;;;;;;63.70;23.10;;;-1.40;80.00;;;;;;5008959;28;20186;-71
2024/01/14 01:49:45;;;;;;;53.92;20.13;;;-1.40;80.00;;;;;;5005007;28;20920;-69
2024/01/14 01:52:12;;;;;;;50.15;19.10;;;-1.40;80.00;;;;;;5007859;28;20195;-70
2024/01/14 01:54:40;;;;;;;60.80;20.83;;;-1.50;80.00;;;;;;5003761;28;20192;-70
2024/01/14 01:57:07;;;;;;;57.92;22.50;;;-1.60;80.20;;;;;;5014896;28;20186;-71
2024/01/14 01:59:33;;;;;;;66.13;20.70;;;-1.60;80.30;;;;;;5013084;28;20213;-71
2024/01/14 02:02:01;;;;;;;58.33;20.35;;;-1.70;80.30;;;;;;5014541;28;20202;-71
2024/01/14 02:04:28;;;;;;;60.35;21.30;;;-1.60;80.80;;;;;;5012450;28;20190;-70
2024/01/14 02:06:54;;;;;;;62.60;23.30;;;-1.60;80.60;;;;;;5009079;28;20245;-71
2024/01/14 02:09:21;;;;;;;57.67;20.73;;;-1.60;80.50;;;;;;5007120;28;20883;-71
2024/01/14 02:11:47;;;;;;;63.92;22.85;;;-1.50;80.60;;;;;;5010807;28;20221;-71
2024/01/14 02:14:12;;;;;;;63.85;22.40;;;-1.50;80.50;;;;;;5015231;28;20245;-71
2024/01/14 02:16:38;;;;;;;62.23;23.00;;;-1.60;80.30;;;;;;5013147;28;20544;-70
2024/01/14 02:19:04;;;;;;;52.67;21.00;;;-1.60;80.50;;;;;;5023471;28;20181;-72
2024/01/14 02:21:38;;;;;;;58.13;20.10;;;-1.50;80.60;;;;;;5015958;28;20281;-70
2024/01/14 02:24:11;;;;;;;53.28;19.13;;;-1.60;80.50;;;;;;5012424;28;20189;-69
2024/01/14 02:26:37;;;;;;;61.00;22.60;;;-1.60;80.30;;;;;;5008964;28;20217;-70
2024/01/14 02:29:04;;;;;;;59.47;23.50;;;-1.60;80.80;;;;;;5020014;28;20219;-73
2024/01/14 02:31:29;;;;;;;57.45;21.23;;;-1.60;80.60;;;;;;5009312;28;20260;-71
2024/01/14 02:33:55;;;;;;;67.77;23.30;;;-1.50;80.80;;;;;;5026429;28;20190;-70
2024/01/14 02:36:21;;;;;;;57.17;22.23;;;-1.60;80.60;;;;;;5012852;28;20439;-71
2024/01/14 02:38:46;;;;;;;64.77;21.50;;;-1.60;80.50;;;;;;5016481;28;20205;-70
2024/01/14 02:41:12;;;;;;;69.43;23.27;;;-1.50;80.50;;;;;;5005563;28;20217;-69
2024/01/14 02:43:37;;;;;;;74.43;22.70;;;-1.80;80.20;;;;;;5016821;28;20178;-69
2024/01/14 02:46:03;;;;;;;68.50;21.80;;;-1.90;80.60;;;;;;5021566;28;20204;-68
2024/01/14 02:48:29;;;;;;;57.43;21.87;;;-1.90;80.90;;;;;;5018284;28;20178;-71
2024/01/14 02:50:54;;;;;;;59.27;21.27;;;-1.90;80.90;;;;;;5016533;28;20209;-69
2024/01/14 02:53:20;;;;;;;58.73;21.83;;;-2.10;81.10;;;;;;5012712;28;20184;-70
2024/01/14 02:55:45;;;;;;;65.57;22.23;;;-2.00;81.40;;;;;;5018536;28;20201;-70
2024/01/14 02:58:11;;;;;;;70.40;21.83;;;-2.10;81.50;;;;;;5016805;28;20658;-69
2024/01/14 03:00:37;;;;;;;81.77;24.73;;;-2.30;81.50;;;;;;5011369;28;20734;-70
2024/01/14 03:03:02;;;;;;;73.83;22.37;;;-2.50;81.70;;;;;;5011371;28;20178;-69
2024/01/14 03:05:28;;;;;;;58.17;21.13;;;-2.50;82.10;;;;;;5016724;28;20206;-69
2024/01/14 03:07:53;;;;;;;57.20;19.97;;;-2.60;82.40;;;;;;5011475;28;20190;-69
2024/01/14 03:10:19;;;;;;;76.10;26.97;;;-2.60;82.70;;;;;;5015784;28;20221;-70
2024/01/14 03:12:45;;;;;;;66.57;21.70;;;-2.80;82.80;;;;;;5013459;28;20182;-69
2024/01/14 03:15:10;;;;;;;76.20;23.60;;;-2.70;83.10;;;;;;5018639;28;20204;-69
2024/01/14 03:17:36;;;;;;;69.43;23.07;;;-2.70;83.30;;;;;;5014733;28;20198;-69
2024/01/14 03:20:02;;;;;;;72.67;22.90;;;-2.80;83.30;;;;;;5016643;28;20259;-69
2024/01/14 03:22:28;;;;;;;67.47;22.80;;;-2.80;83.40;;;;;;5016088;28;20284;-69
2024/01/14 03:24:53;;;;;;;66.97;22.93;;;-2.90;83.70;;;;;;5023879;28;20529;-71
2024/01/14 03:27:19;;;;;;;61.53;21.30;;;-2.80;83.70;;;;;;5013005;28;20174;-71
2024/01/14 03:29:44;;;;;;;63.90;20.80;;;-2.70;84.10;;;;;;5018948;28;20189;-68
2024/01/14 03:32:10;;;;;;;65.80;23.50;;;-2.60;83.80;;;;;;5007376;28;20201;-71
2024/01/14 03:34:36;;;;;;;67.73;23.33;;;-2.70;83.60;;;;;;5018640;28;20656;-70
2024/01/14 03:37:03;;;;;;;65.75;22.02;;;-2.70;83.40;;;;;;5008641;28;20192;-70
2024/01/14 03:39:28;;;;;;;60.35;20.98;;;-2.70;83.30;;;;;;5012453;28;20225;-69
2024/01/14 03:41:54;;;;;;;68.10;22.13;;;-2.70;83.00;;;;;;5007441;28;20809;-69
2024/01/14 03:44:19;;;;;;;63.33;19.97;;;-2.90;82.70;;;;;;5015040;28;20236;-69
2024/01/14 03:46:45;;;;;;;66.37;20.30;;;-2.80;82.80;;;;;;5016400;28;20196;-70
2024/01/14 03:49:10;;;;;;;64.97;17.43;;;-2.70;83.00;;;;;;5017051;28;20240;-68
2024/01/14 03:51:36;;;;;;;52.47;19.80;;;-2.70;82.40;;;;;;5009496;28;20214;-69
2024/01/14 03:54:01;;;;;;;44.53;16.40;;;-2.80;82.10;;;;;;5013079;28;20610;-70
2024/01/14 03:56:27;;;;;;;60.47;21.03;;;-2.80;82.40;;;;;;5014069;28;20519;-69
2024/01/14 03:58:53;;;;;;;65.73;22.73;;;-2.80;82.40;;;;;;5013217;28;20312;-68
2024/01/14 04:01:18;;;;;;;62.77;23.17;;;-2.90;82.40;;;;;;5012640;28;20224;-72
2024/01/14 04:03:44;;;;;;;60.97;20.50;;;-2.90;82.50;;;;;;5018312;28;20236;-71
2024/01/14 04:06:09;;;;;;;60.23;20.63;;;-3.00;82.70;;;;;;5018862;28;20213;-71
2024/01/14 04:08:35;;;;;;;67.30;20.87;;;-3.10;82.80;;;;;;5012247;28;20753;-70
2024/01/14 04:11:01;;;;;;;51.20;20.43;;;-3.10;83.10;;;;;;5014842;28;20243;-69
2024/01/14 04:13:26;;;;;;;72.23;22.97;;;-3.00;83.30;;;;;;5018620;28;20277;-71
2024/01/14 04:15:55;;;;;;;60.13;19.90;;;-2.90;83.40;;;;;;5026916;28;20182;-70
2024/01/14 04:18:21;;;;;;;72.38;23.60;;;-2.80;83.30;;;;;;5030470;28;20299;-71
2024/01/14 04:20:47;;;;;;;67.60;24.40;;;-2.80;83.00;;;;;;5037736;28;20193;-70
2024/01/14 04:23:12;;;;;;;71.97;23.13;;;-2.90;82.70;;;;;;5021173;28;20209;-72
2024/01/14 04:25:38;;;;;;;78.77;26.30;;;-2.90;83.30;;;;;;5024398;28;20201;-71
2024/01/14 04:28:03;;;;;;;69.83;23.23;;;-3.00;83.40;;;;;;5006204;28;20725;-70
2024/01/14 04:30:29;;;;;;;76.97;23.60;;;-3.20;83.60;;;;;;5007984;28;20581;-69
2024/01/14 04:32:55;;;;;;;96.43;29.37;;;-3.20;83.80;;;;;;5014646;28;20513;-69
2024/01/14 04:35:20;;;;;;;80.43;26.87;;;-3.30;84.10;;;;;;5010282;28;20219;-70
2024/01/14 04:37:46;;;;;;;75.53;23.40;;;-3.30;84.60;;;;;;5011501;28;20247;-72
2024/01/14 04:40:11;;;;;;;70.07;23.77;;;-3.50;84.40;;;;;;5005878;28;20202;-70
2024/01/14 04:42:37;;;;;;;79.17;22.93;;;-3.50;84.60;;;;;;5011499;28;20178;-71
2024/01/14 04:45:03;;;;;;;57.47;20.80;;;-3.40;84.70;;;;;;5019787;28;20723;-69
2024/01/14 04:47:29;;;;;;;79.53;22.75;;;-3.40;84.70;;;;;;5005796;28;20233;-72
2024/01/14 04:49:54;;;;;;;66.50;21.63;;;-3.40;84.60;;;;;;5018397;28;20224;-71
2024/01/14 04:52:20;;;;;;;73.43;22.07;;;-3.50;84.40;;;;;;5015180;28;20200;-72
2024/01/14 04:54:45;;;;;;;79.77;24.63;;;-3.40;84.60;;;;;;5017427;28;20182;-70
2024/01/14 04:57:11;;;;;;;83.47;23.67;;;-3.50;84.60;;;;;;5013814;28;20186;-70
2024/01/14 04:59:37;;;;;;;68.03;24.10;;;-3.60;84.60;;;;;;5016461;28;20194;-72
2024/01/14 05:02:02;;;;;;;70.35;22.13;;;-3.80;84.70;;;;;;5012248;28;20212;-70
2024/01/14 05:04:28;;;;;;;70.03;21.40;;;-3.70;84.70;;;;;;5019292;28;20588;-71
2024/01/14 05:06:54;;;;;;;53.87;18.50;;;-3.70;84.70;;;;;;5011469;28;20178;-69
2024/01/14 05:09:21;;;;;;;61.83;20.77;;;-3.70;84.70;;;;;;5013131;28;20192;-70
2024/01/14 05:11:47;;;;;;;52.80;18.42;;;-3.60;84.70;;;;;;5005758;28;20594;-70
2024/01/14 05:14:12;;;;;;;61.93;20.73;;;-3.50;84.70;;;;;;5013079;28;20186;-72
2024/01/14 05:16:38;;;;;;;77.43;19.03;;;-3.30;84.70;;;;;;5014085;28;20224;-68
2024/01/14 05:19:03;;;;;;;68.77;22.80;;;-3.30;84.30;;;;;;5012963;28;20190;-69
2024/01/14 05:21:29;;;;;;;66.87;22.93;;;-3.50;84.00;;;;;;5007708;28;20237;-69
2024/01/14 05:23:55;;;;;;;77.97;23.43;;;-3.70;84.30;;;;;;5010614;28;20659;-69
2024/01/14 05:26:20;;;;;;;68.67;21.70;;;-3.90;84.90;;;;;;5014051;28;20243;-72
2024/01/14 05:28:46;;;;;;;63.47;21.60;;;-3.90;85.30;;;;;;5004856;28;20196;-72
2024/01/14 05:31:12;;;;;;;61.50;21.30;;;-3.80;85.50;;;;;;5000187;28;20238;-69
2024/01/14 05:33:37;;;;;;;69.20;22.97;;;-3.80;85.60;;;;;;5011467;28;20693;-70
2024/01/14 05:36:03;;;;;;;64.47;20.83;;;-3.90;85.30;;;;;;5015330;28;20239;-70
2024/01/14 05:38:29;;;;;;;67.33;21.40;;;-3.90;85.30;;;;;;5015606;28;20293;-69
2024/01/14 05:40:55;;;;;;;58.63;20.80;;;-3.90;85.50;;;;;;5011192;28;20305;-71
2024/01/14 05:43:20;;;;;;;61.53;20.50;;;-3.90;85.50;;;;;;5012007;28;20193;-70
2024/01/14 05:45:47;;;;;;;60.77;21.40;;;-3.90;85.50;;;;;;5021329;28;20463;-69
2024/01/14 05:48:13;;;;;;;70.82;21.90;;;-3.90;85.50;;;;;;5015047;28;20252;-70
2024/01/14 05:50:38;;;;;;;69.30;20.43;;;-4.00;85.30;;;;;;5018749;28;20201;-71
2024/01/14 05:53:04;;;;;;;77.70;24.27;;;-3.90;85.50;;;;;;5023792;28;20670;-69
2024/01/14 05:55:30;;;;;;;65.13;22.37;;;-4.10;85.50;;;;;;5014055;28;20182;-69
2024/01/14 05:57:55;;;;;;;69.13;20.70;;;-4.00;85.60;;;;;;5015839;28;20594;-70
2024/01/14 06:00:22;;;;;;;63.77;20.40;;;-4.00;85.70;;;;;;5017636;28;20202;-70
2024/01/14 06:02:49;;;;;;;63.85;19.95;;;-3.80;85.70;;;;;;5014742;28;20243;-71
2024/01/14 06:05:15;;;;;;;53.92;19.17;;;-3.80;85.50;;;;;;5009778;28;20225;-69
2024/01/14 06:07:40;;;;;;;57.53;19.85;;;-3.70;85.20;;;;;;5021154;28;20557;-72
2024/01/14 06:10:07;;;;;;;67.00;21.33;;;-3.60;85.00;;;;;;5016984;28;20218;-69
2024/01/14 06:12:33;;;;;;;74.40;22.15;;;-3.50;84.90;;;;;;5018157;28;20193;-70
2024/01/14 06:14:59;;;;;;;68.03;20.53;;;-3.50;84.70;;;;;;5015681;28;20186;-70
2024/01/14 06:17:24;;;;;;;69.90;20.73;;;-3.50;84.60;;;;;;5016325;28;20252;-70
2024/01/14 06:19:50;;;;;;;64.37;22.77;;;-3.40;84.30;;;;;;5011222;28;20678;-70
2024/01/14 06:22:15;;;;;;;46.37;15.73;;;-3.50;84.10;;;;;;5017828;28;20275;-72
2024/01/14 06:24:41;;;;;;;50.83;15.97;;;-3.50;84.00;;;;;;5013057;28;20214;-70
2024/01/14 06:27:06;;;;;;;48.87;17.57;;;-3.60;83.00;;;;;;5020393;28;20193;-69
2024/01/14 06:29:32;;;;;;;54.30;15.40;;;-3.70;83.10;;;;;;5018511;28;20182;-71
2024/01/14 06:32:00;;;;;;;42.33;14.07;;;-3.70;83.10;;;;;;5011639;28;20240;-70
2024/01/14 06:34:26;;;;;;;64.55;17.55;;;-3.70;83.10;;;;;;5018756;28;20197;-70
2024/01/14 06:36:52;;;;;;;59.87;16.97;;;-3.60;83.10;;;;;;5018351;28;20191;-70
2024/01/14 06:39:17;;;;;;;54.77;17.57;;;-3.70;83.00;;;;;;5011338;28;20627;-71
2024/01/14 06:41:43;;;;;;;44.63;16.67;;;-3.70;83.10;;;;;;5018013;28;20248;-72
2024/01/14 06:44:09;;;;;;;53.70;17.07;;;-3.70;83.10;;;;;;5013304;28;20678;-70
2024/01/14 06:46:34;;;;;;;60.03;18.08;;;-3.70;83.10;;;;;;5027789;28;20212;-70
2024/01/14 06:49:00;;;;;;;60.13;17.60;;;-3.60;83.30;;;;;;5019832;28;20197;-71
2024/01/14 06:51:25;;;;;;;57.10;19.27;;;-3.60;83.30;;;;;;5018832;28;20205;-72
2024/01/14 06:53:51;;;;;;;56.70;19.43;;;-3.70;83.10;;;;;;5016173;28;20189;-71
2024/01/14 06:56:18;;;;;;;33.43;11.63;;;-3.60;83.30;;;;;;5015412;28;20665;-71
2024/01/14 06:58:43;;;;;;;64.22;20.42;;;-3.70;83.60;;;;;;5015170;28;20188;-71
2024/01/14 07:01:09;;;;;;;62.37;20.20;;;-3.80;83.80;;;;;;5013918;28;20214;-71
2024/01/14 07:03:34;;;;;;;42.87;16.33;;;-3.80;84.00;;;;;;5014087;28;20201;-71
2024/01/14 07:06:00;;;;;;;64.97;19.80;;;-3.70;84.10;;;;;;5020781;28;20216;-73
2024/01/14 07:08:26;;;;;;;59.90;20.33;;;-3.70;84.30;;;;;;5012920;28;20185;-70
2024/01/14 07:10:51;;;;;;;58.27;20.33;;;-3.60;84.30;;;;;;5011938;28;20209;-70
2024/01/14 07:13:17;;;;;;;61.50;15.97;;;-3.70;84.00;;;;;;5021022;28;20240;-70
2024/01/14 07:15:43;;;;;;;65.22;18.15;;;-3.70;84.00;;;;;;5019207;28;20181;-71
2024/01/14 07:18:09;;;;;;;62.13;19.03;;;-3.70;84.10;;;;;;5017058;28;20181;-70
2024/01/14 07:20:34;;;;;;;62.80;19.83;;;-3.70;84.40;;;;;;5020723;28;20281;-71
2024/01/14 07:23:00;;;;;;;60.07;18.80;;;-3.60;84.40;;;;;;5022425;28;20177;-70
2024/01/14 07:25:26;;;;;;;54.60;19.37;;;-3.60;84.30;;;;;;5015698;28;20404;-70
2024/01/14 07:27:51;;;;;;;54.73;19.43;;;-3.50;84.60;;;;;;5019119;28;20252;-69
2024/01/14 07:30:18;;;;;;;80.20;24.50;;;-3.50;84.30;;;;;;5016315;28;20444;-69
2024/01/14 07:32:45;;;;;;;71.57;23.88;;;-3.50;84.30;;;;;;5016660;28;20549;-70
2024/01/14 07:35:11;;;;;;;61.38;19.63;;;-3.40;84.30;;;;;;5018231;28;20189;-68
2024/01/14 07:37:37;;;;;;;60.92;19.42;;;-3.40;84.40;;;;;;5015276;28;20193;-69
2024/01/14 07:40:03;;;;;;;68.50;21.67;;;-3.50;83.80;;;;;;5011710;28;21135;-69
2024/01/14 07:45:50;;;;;;;71.18;24.30;;;-3.50;83.80;;;;;;5007682;28;20558;-71
2024/01/14 07:48:16;;;;;;;73.97;24.13;;;-3.40;83.80;;;;;;5014359;28;20666;-70
2024/01/14 07:50:42;;;;;;;58.07;20.30;;;-3.40;83.60;;;;;;5007776;28;20232;-70
2024/01/14 07:53:09;;;;;;;59.73;19.60;;;-3.40;83.80;;;;;;5011945;28;20487;-69
2024/01/14 07:55:35;;;;;;;61.75;22.75;;;-3.30;84.00;;;;;;5013347;28;20315;-70
2024/01/14 07:58:00;;;;;;;62.17;17.37;;;-3.40;83.10;;;;;;5016602;28;20189;-71
2024/01/14 08:00:26;;;;;;;61.00;22.23;;;-3.40;83.10;;;;;;5014199;28;20201;-72
2024/01/14 08:02:51;;;;;;;59.90;20.30;;;-3.50;83.30;;;;;;5016187;28;20178;-70
2024/01/14 08:05:17;;;;;;;71.57;21.67;;;-3.40;83.40;;;;;;5021536;28;20298;-70
2024/01/14 08:07:42;;;;;;;72.60;22.70;;;-3.20;83.60;;;;;;5016257;28;20185;-72
2024/01/14 08:10:10;;;;;;;75.43;22.50;;;-3.20;83.40;;;;;;5012386;28;20357;-71
2024/01/14 08:12:36;;;;;;;64.93;21.60;;;-3.20;83.40;;;;;;5019087;28;20208;-73
2024/01/14 08:15:01;;;;;;;70.97;20.83;;;-3.00;83.30;;;;;;5010783;28;20272;-72
2024/01/14 08:17:28;;;;;;;62.13;21.67;;;-3.10;82.40;;;;;;5017959;28;20376;-72
2024/01/14 08:19:54;;;;;;;65.05;22.27;;;-3.10;82.50;;;;;;5010264;28;20182;-71
2024/01/14 08:22:19;;;;;;;62.60;20.20;;;-3.10;82.40;;;;;;5020937;28;20196;-71
2024/01/14 08:24:45;;;;;;;67.20;20.67;;;-3.00;82.40;;;;;;5014775;28;20174;-71
2024/01/14 08:27:11;;;;;;;60.27;20.73;;;-3.00;82.20;;;;;;5024516;28;20177;-72
2024/01/14 08:29:36;;;;;;;59.37;21.17;;;-2.90;82.20;;;;;;5011839;28;20189;-70
2024/01/14 08:32:02;;;;;;;47.67;13.40;;;-3.00;82.10;;;;;;5011183;28;20658;-70
2024/01/14 08:34:28;;;;;;;60.42;20.88;;;-3.10;82.40;;;;;;5011435;28;20196;-70
2024/01/14 08:36:53;;;;;;;58.00;18.70;;;-3.20;82.50;;;;;;5019644;28;20268;-71
2024/01/14 08:39:19;;;;;;;75.50;22.20;;;-3.20;83.10;;;;;;5012957;28;20264;-71
2024/01/14 08:41:44;;;;;;;71.90;24.23;;;-3.20;83.10;;;;;;5016318;28;20222;-72
2024/01/14 08:44:10;;;;;;;56.13;20.23;;;-3.10;83.30;;;;;;5013249;28;20190;-70
2024/01/14 08:46:40;;;;;;;68.00;22.13;;;-3.00;83.10;;;;;;5012025;28;20228;-73
2024/01/14 08:49:07;;;;;;;64.22;20.88;;;-2.90;82.80;;;;;;5010860;28;20217;-70
2024/01/14 08:51:32;;;;;;;51.55;18.02;;;-2.80;82.50;;;;;;5018517;28;20221;-72
2024/01/14 08:54:00;;;;;;;53.60;20.40;;;-2.70;82.50;;;;;;5012866;28;20662;-70
2024/01/14 08:56:28;;;;;;;63.67;20.98;;;-2.70;81.80;;;;;;5021457;28;20190;-70
2024/01/14 08:58:57;;;;;;;58.42;21.20;;;-2.70;81.70;;;;;;5015749;28;20208;-71
2024/01/14 09:01:23;;;;;;;56.17;20.38;;;-2.60;81.50;;;;;;5009964;28;20205;-70
2024/01/14 09:03:48;;;;;;;62.63;18.63;;;-2.70;81.40;;;;;;5012310;28;20588;-71
2024/01/14 09:06:14;;;;;;;55.50;20.30;;;-2.80;80.80;;;;;;5010864;28;20247;-70
2024/01/14 09:08:40;;;;;;;59.90;22.53;;;-2.80;80.90;;;;;;5014378;28;20686;-70
2024/01/14 09:11:05;;;;;;;58.03;18.70;;;-2.80;81.40;;;;;;5008227;28;20467;-71
2024/01/14 09:13:31;;;;;;;61.63;20.63;;;-2.60;81.40;;;;;;5014277;28;20181;-73
2024/01/14 09:15:56;;;;;;;62.13;20.97;;;-2.60;80.90;;;;;;5014423;28;20540;-70
2024/01/14 09:18:22;;;;;;;65.53;21.03;;;-2.60;80.80;;;;;;5022432;28;20181;-72
2024/01/14 09:20:48;;;;;;;62.57;22.13;;;-2.50;80.80;;;;;;5010838;28;20288;-73
2024/01/14 09:23:13;;;;;;;62.30;21.60;;;-2.70;80.50;;;;;;5021558;28;20252;-71
2024/01/14 09:25:39;;;;;;;64.70;21.80;;;-2.80;80.50;;;;;;5021568;28;20209;-72
2024/01/14 09:28:05;;;;;;;58.80;20.80;;;-2.80;80.80;;;;;;5028342;28;20220;-71
2024/01/14 09:30:30;;;;;;;59.47;21.70;;;-2.60;81.10;;;;;;5010379;28;20635;-72
2024/01/14 09:32:56;;;;;;;69.73;22.13;;;-2.60;80.90;;;;;;5025273;28;20212;-71
2024/01/14 09:35:21;;;;;;;59.27;20.10;;;-2.60;80.50;;;;;;5018616;28;20804;-71
2024/01/14 09:37:47;;;;;;;61.90;21.47;;;-2.60;80.30;;;;;;5022586;28;20201;-69
2024/01/14 09:40:14;;;;;;;52.60;20.47;;;-2.60;80.50;;;;;;5011078;28;20210;-69
2024/01/14 09:42:44;;;;;;;63.03;21.40;;;-2.60;80.20;;;;;;5021153;28;20196;-70
2024/01/14 09:45:10;;;;;;;59.08;21.77;;;-2.60;80.30;;;;;;5023599;28;20240;-71
2024/01/14 09:47:37;;;;;;;66.13;22.30;;;-2.60;80.00;;;;;;5028137;28;20186;-70
2024/01/14 09:50:04;;;;;;;54.80;19.20;;;-2.70;80.00;;;;;;5018923;28;20465;-71
2024/01/14 09:52:33;;;;;;;46.28;16.95;;;-2.70;80.30;;;;;;5018172;28;20185;-69
2024/01/14 09:54:58;;;;;;;63.70;22.88;;;-2.90;80.50;;;;;;5015915;28;20205;-71
2024/01/14 09:57:28;;;;;;;60.77;22.90;;;-2.90;81.20;;;;;;5020335;28;20184;-69
2024/01/14 09:59:55;;;;;;;65.20;21.00;;;-2.90;81.40;;;;;;5019699;28;20446;-69
2024/01/14 10:02:22;;;;;;;56.25;20.70;;;-2.70;81.50;;;;;;5017085;28;20182;-70
2024/01/14 10:04:48;;;;;;;55.20;21.30;;;-2.70;80.80;;;;;;5018036;28;20244;-70
2024/01/14 10:07:15;;;;;;;46.40;14.45;;;-2.70;80.50;;;;;;5024249;28;20181;-71
2024/01/14 10:09:42;;;;;;;66.90;21.27;;;-2.90;80.20;;;;;;5028498;28;20185;-72
2024/01/14 10:12:09;;;;;;;68.50;24.15;;;-2.90;80.80;;;;;;5033391;28;20193;-72
2024/01/14 10:14:35;;;;;;;26.98;10.50;;;-2.80;80.90;;;;;;5027381;28;20292;-71
2024/01/14 10:17:00;;;;;;;66.00;20.75;;;-2.70;80.60;;;;;;5018940;28;20286;-71
2024/01/14 10:19:26;;;;;;;52.70;17.43;;;-2.80;80.50;;;;;;5021429;28;20662;-71
2024/01/14 10:21:54;;;;;;;56.23;23.27;;;-2.80;80.60;;;;;;5016423;28;20201;-70
2024/01/14 10:24:23;;;;;;;49.70;18.42;;;-2.70;80.80;;;;;;5021071;28;20186;-71
2024/01/14 10:30:11;;;;;;;67.95;19.90;;;-2.70;80.30;;;;;;5013478;28;20282;-70
2024/01/14 10:32:37;;;;;;;32.03;10.23;;;-2.70;80.60;;;;;;5019571;28;20222;-70
2024/01/14 10:35:10;;;;;;;69.37;21.97;;;-2.40;80.50;;;;;;5016829;28;20210;-72
2024/01/14 10:37:35;;;;;;;55.78;19.95;;;-2.30;79.60;;;;;;5010121;28;20197;-72
2024/01/14 10:40:04;;;;;;;61.70;22.70;;;-2.30;78.90;;;;;;5009395;28;22141;-71
2024/01/14 10:42:30;;;;;;;58.83;22.02;;;-2.10;78.90;;;;;;5018073;28;20612;-71
2024/01/14 10:44:55;;;;;;;61.17;20.90;;;-1.80;78.70;;;;;;5015728;28;20245;-72
2024/01/14 10:47:23;;;;;;;65.47;21.70;;;-1.70;78.10;;;;;;5018808;28;20182;-69
2024/01/14 10:49:50;;;;;;;59.85;22.33;;;-1.50;77.00;;;;;;5016579;28;20174;-69
2024/01/14 10:52:18;;;;;;;63.65;21.17;;;-1.40;76.70;;;;;;5013949;28;20178;-73
2024/01/14 10:54:51;;;;;;;58.67;21.23;;;-1.40;76.10;;;;;;5016537;28;20318;-73
2024/01/14 10:57:26;;;;;;;64.32;21.70;;;-1.20;76.10;;;;;;5013247;28;20192;-72
2024/01/14 10:59:59;;;;;;;54.63;18.90;;;-1.20;75.20;;;;;;5012763;28;20616;-69
2024/01/14 11:02:28;;;;;;;46.28;19.38;;;-1.10;75.50;;;;;;5025479;28;20182;-70
2024/01/14 11:04:55;;;;;;;65.72;22.38;;;-1.10;74.80;;;;;;5016486;28;20216;-72
2024/01/14 11:07:25;;;;;;;56.65;22.50;;;-0.90;74.80;;;;;;5020661;28;20190;-73
2024/01/14 11:09:52;;;;;;;54.20;21.48;;;-0.60;74.90;;;;;;5013454;28;20186;-73
2024/01/14 11:12:56;;;;;;;56.92;21.35;;;-0.50;73.50;;;;;;5018512;28;20186;-71
2024/01/14 11:15:28;;;;;;;54.42;20.27;;;-0.50;73.20;;;;;;5015543;28;20208;-72
2024/01/14 11:18:21;;;;;;;56.80;22.17;;;-0.50;73.20;;;;;;5019460;28;20182;-70
2024/01/14 11:20:58;;;;;;;62.70;22.70;;;-0.60;73.20;;;;;;5016010;28;20197;-72
2024/01/14 11:23:25;;;;;;;59.20;21.20;;;-0.40;73.60;;;;;;5021517;28;20189;-72
2024/01/14 11:25:50;;;;;;;60.55;22.52;;;-0.30;73.20;;;;;;5020992;28;20202;-72
2024/01/14 11:28:16;;;;;;;46.17;19.80;;;-0.30;72.90;;;;;;5019012;28;20183;-72
2024/01/14 11:30:48;;;;;;;63.17;23.00;;;-0.20;73.20;;;;;;5011289;28;20206;-71
2024/01/14 11:33:46;;;;;;;51.63;21.02;;;0.00;72.90;;;;;;5017584;28;20193;-71
2024/01/14 11:36:13;;;;;;;54.35;21.50;;;-0.20;72.00;;;;;;4950547;28;20199;-70
2024/01/14 11:38:45;;;;;;;61.72;20.75;;;-0.30;72.30;;;;;;4952485;29;20290;-74
2024/01/14 11:41:30;;;;;;;49.42;19.38;;;-0.30;72.70;;;;;;4949595;28;20220;-72
2024/01/14 11:44:02;;;;;;;47.70;19.27;;;-0.30;72.30;;;;;;4952300;28;20280;-72
2024/01/14 11:46:41;;;;;;;48.92;19.17;;;-0.20;72.70;;;;;;4951087;29;20224;-71
2024/01/14 11:49:11;;;;;;;47.90;17.88;;;-0.30;72.30;;;;;;4955695;29;20195;-73
2024/01/14 11:51:50;;;;;;;46.95;18.15;;;-0.20;72.40;;;;;;4954692;28;20239;-72
2024/01/14 11:54:17;;;;;;;61.53;20.85;;;-0.10;72.60;;;;;;4957860;28;20223;-73
2024/01/14 11:56:42;;;;;;;54.00;20.48;;;0.10;72.60;;;;;;4956377;28;20196;-71
2024/01/14 11:59:09;;;;;;;51.00;19.70;;;0.10;72.00;;;;;;4954487;29;20218;-72
2024/01/14 12:01:37;;;;;;;54.15;20.73;;;0.20;71.80;;;;;;4953512;28;20230;-73
2024/01/14 12:04:09;;;;;;;57.42;20.83;;;0.30;71.70;;;;;;4955921;28;20195;-73
2024/01/14 12:06:39;;;;;;;51.90;18.92;;;0.30;71.70;;;;;;4959026;28;20713;-73
2024/01/14 12:09:06;;;;;;;57.20;19.55;;;0.30;71.60;;;;;;4960423;29;20247;-71
2024/01/14 12:11:32;;;;;;;45.45;17.15;;;0.30;71.60;;;;;;4959150;28;20216;-72
2024/01/14 12:13:58;;;;;;;56.23;20.70;;;0.50;71.60;;;;;;5021784;28;20350;-72
2024/01/14 12:16:23;;;;;;;48.10;20.57;;;0.50;71.40;;;;;;5017413;28;20202;-72
2024/01/14 12:18:49;;;;;;;49.85;21.70;;;0.60;71.00;;;;;;5015539;28;20417;-72
2024/01/14 12:21:17;;;;;;;57.80;23.43;;;0.70;70.80;;;;;;5006349;28;20940;-74
2024/01/14 12:23:43;;;;;;;48.92;20.42;;;0.70;70.50;;;;;;5019494;28;20259;-73
2024/01/14 12:26:09;;;;;;;49.73;20.87;;;1.00;70.80;;;;;;5012163;28;20659;-73
2024/01/14 12:28:35;;;;;;;50.38;19.02;;;1.10;70.40;;;;;;5023223;28;20440;-72
2024/01/14 12:31:03;;;;;;;54.73;21.37;;;1.10;70.10;;;;;;5003725;28;20210;-72